Time;durP1;ratioP1;P1;durP2;ratioP2;P2;SDS_P1;SDS_P2;PMS_P1;PMS_P2;Temp;Humidity;BMP_temperature;BMP_pressure;BME280_temperature;BME280_humidity;BME280_pressure;Samples;Min_cycle;Max_cycle;Signal;HPM_P1;HPM_P2
2022/03/08 00:02:07;;;;;;;14.90;6.50;;;;;;;-0.13;67.94;102299.38;5067943;28;20021;-74
2022/03/08 00:04:33;;;;;;;17.48;6.00;;;;;;;-0.20;68.03;102298.03;5069412;28;20043;-74
2022/03/08 00:06:59;;;;;;;13.07;5.15;;;;;;;-0.20;68.31;102302.44;5069698;28;20043;-74
2022/03/08 00:09:24;;;;;;;15.02;6.63;;;;;;;-0.28;68.19;102295.84;5051577;28;20020;-74
2022/03/08 00:11:50;;;;;;;12.52;5.28;;;;;;;-0.24;68.11;102302.63;5051653;28;20395;-74
2022/03/08 00:14:15;;;;;;;10.20;5.32;;;;;;;-0.32;67.94;102294.34;5068294;28;20032;-74
2022/03/08 00:16:40;;;;;;;8.38;4.18;;;;;;;-0.30;67.77;102300.34;5069529;28;20028;-74
2022/03/08 00:19:06;;;;;;;16.55;6.85;;;;;;;-0.31;67.76;102292.59;5068139;28;20034;-74
2022/03/08 00:21:31;;;;;;;13.90;6.05;;;;;;;-0.32;68.01;102296.97;5068282;28;20074;-74
2022/03/08 00:23:57;;;;;;;12.95;4.85;;;;;;;-0.33;68.19;102291.81;5069514;28;20468;-74
2022/03/08 00:26:23;;;;;;;12.23;6.25;;;;;;;-0.38;67.78;102294.72;5069325;28;20028;-74
2022/03/08 00:28:48;;;;;;;13.30;5.90;;;;;;;-0.39;67.56;102295.66;5069449;28;20032;-74
2022/03/08 00:31:14;;;;;;;12.20;5.50;;;;;;;-0.32;67.25;102294.34;5069792;28;20029;-73
2022/03/08 00:33:40;;;;;;;13.23;5.32;;;;;;;-0.27;66.76;102292.28;5068358;28;20032;-74
2022/03/08 00:36:05;;;;;;;11.48;5.22;;;;;;;-0.21;66.71;102283.22;5069429;28;20074;-73
2022/03/08 00:38:31;;;;;;;11.05;5.15;;;;;;;-0.16;66.29;102277.72;5068990;28;20053;-73
2022/03/08 00:40:56;;;;;;;10.52;5.82;;;;;;;-0.20;66.19;102265.72;5069202;28;20041;-74
2022/03/08 00:43:22;;;;;;;12.65;5.15;;;;;;;-0.15;66.42;102284.66;5067490;28;20595;-74
2022/03/08 00:45:48;;;;;;;17.98;5.82;;;;;;;-0.22;66.22;102281.53;5068809;28;20094;-74
2022/03/08 00:48:13;;;;;;;9.43;4.80;;;;;;;-0.19;66.54;102296.25;5068965;28;20102;-74
2022/03/08 00:50:38;;;;;;;12.80;6.13;;;;;;;-0.19;66.34;102288.38;5068940;28;20067;-74
2022/03/08 00:53:05;;;;;;;10.98;6.20;;;;;;;-0.24;66.08;102280.78;5069325;28;20434;-74
2022/03/08 00:55:31;;;;;;;13.35;5.03;;;;;;;-0.19;66.10;102291.84;5068838;28;20421;-74
2022/03/08 00:57:57;;;;;;;12.23;5.70;;;;;;;-0.17;66.29;102291.75;5068946;28;20037;-74
2022/03/08 01:00:27;;;;;;;10.85;5.45;;;;;;;-0.21;65.80;102280.59;5068516;28;20468;-74
2022/03/08 01:02:53;;;;;;;15.52;5.63;;;;;;;-0.17;65.99;102291.75;5069123;28;20111;-73
2022/03/08 01:05:18;;;;;;;13.90;5.70;;;;;;;-0.26;66.28;102291.38;5069153;28;20119;-73
2022/03/08 01:07:44;;;;;;;11.32;5.43;;;;;;;-0.25;65.97;102281.72;5069253;28;20043;-74
2022/03/08 01:10:15;;;;;;;10.35;5.05;;;;;;;-0.27;65.96;102279.19;5069070;28;20143;-74
2022/03/08 01:12:41;;;;;;;12.75;6.20;;;;;;;-0.29;66.39;102277.59;5068708;28;20028;-74
2022/03/08 01:15:07;;;;;;;9.90;5.20;;;;;;;-0.27;66.45;102275.72;5068990;28;20035;-74
2022/03/08 01:17:33;;;;;;;10.02;4.55;;;;;;;-0.32;66.29;102278.63;5072651;28;20033;-74
2022/03/08 01:19:59;;;;;;;12.88;5.05;;;;;;;-0.35;66.80;102277.97;5072652;28;20031;-75
2022/03/08 01:22:24;;;;;;;14.60;5.05;;;;;;;-0.48;66.74;102267.34;5072669;28;20055;-74
2022/03/08 01:24:50;;;;;;;13.90;5.47;;;;;;;-0.47;66.77;102271.69;5072311;28;20025;-74
2022/03/08 01:27:16;;;;;;;13.35;5.45;;;;;;;-0.47;66.76;102272.50;5071937;28;20036;-73
2022/03/08 01:29:41;;;;;;;9.93;4.80;;;;;;;-0.48;66.49;102260.31;5072678;28;20020;-74
2022/03/08 01:32:07;;;;;;;9.07;4.65;;;;;;;-0.50;66.39;102259.59;5072481;28;20047;-74
2022/03/08 01:34:34;;;;;;;10.38;5.03;;;;;;;-0.59;66.43;102243.56;5072515;28;20044;-75
2022/03/08 01:37:00;;;;;;;10.90;5.25;;;;;;;-0.54;66.45;102254.63;5072362;28;20020;-75
2022/03/08 01:39:25;;;;;;;10.10;4.35;;;;;;;-0.59;67.17;102251.41;5072068;28;20060;-75
2022/03/08 01:41:51;;;;;;;9.60;5.18;;;;;;;-0.65;66.78;102244.75;5054341;28;20025;-75
2022/03/08 01:44:18;;;;;;;10.07;5.13;;;;;;;-0.67;67.21;102242.22;5072356;28;20058;-75
2022/03/08 01:46:43;;;;;;;11.15;5.88;;;;;;;-0.68;67.18;102250.19;5072132;28;20056;-75
2022/03/08 01:49:09;;;;;;;11.77;4.85;;;;;;;-0.72;67.03;102241.66;5072350;28;20112;-73
2022/03/08 01:51:36;;;;;;;11.38;4.80;;;;;;;-0.72;67.42;102232.94;5072148;28;20033;-74
2022/03/08 01:54:02;;;;;;;11.38;5.20;;;;;;;-0.73;66.48;102234.72;5072439;28;20479;-75
2022/03/08 01:56:27;;;;;;;12.10;5.28;;;;;;;-0.74;66.70;102229.56;5071882;28;20119;-75
2022/03/08 01:58:53;;;;;;;13.82;5.57;;;;;;;-0.72;66.80;102228.53;5070353;28;20066;-75
2022/03/08 02:01:18;;;;;;;11.88;5.70;;;;;;;-0.76;66.87;102221.81;5071636;28;20042;-75
2022/03/08 02:03:43;;;;;;;11.40;5.20;;;;;;;-0.76;67.21;102227.06;5070463;28;20119;-75
2022/03/08 02:06:09;;;;;;;11.32;5.80;;;;;;;-0.80;66.56;102211.59;5071866;28;20041;-75
2022/03/08 02:08:34;;;;;;;12.27;4.68;;;;;;;-0.72;66.68;102215.44;5071829;28;20060;-75
2022/03/08 02:11:00;;;;;;;10.90;4.85;;;;;;;-0.68;66.72;102211.72;5071552;28;20521;-75
2022/03/08 02:13:26;;;;;;;10.52;5.03;;;;;;;-0.67;66.99;102202.09;5071143;28;20578;-75
2022/03/08 02:15:52;;;;;;;12.05;5.85;;;;;;;-0.67;66.54;102199.47;5070873;28;21014;-73
2022/03/08 02:18:18;;;;;;;10.55;5.05;;;;;;;-0.66;66.34;102209.00;5071624;28;20040;-73
2022/03/08 02:20:44;;;;;;;12.07;5.68;;;;;;;-0.71;66.45;102190.97;5071429;28;20064;-73
2022/03/08 02:23:09;;;;;;;12.40;5.07;;;;;;;-0.69;66.29;102201.31;5070159;28;20067;-74
2022/03/08 02:25:35;;;;;;;10.93;5.38;;;;;;;-0.65;65.97;102197.59;5069921;28;21129;-75
2022/03/08 02:28:01;;;;;;;13.07;5.00;;;;;;;-0.63;66.26;102195.72;5071335;28;20043;-75
2022/03/08 02:30:27;;;;;;;11.25;4.57;;;;;;;-0.62;66.24;102191.34;5071502;28;20033;-74
2022/03/08 02:32:53;;;;;;;11.30;5.63;;;;;;;-0.62;66.31;102192.19;5069979;28;20435;-75
2022/03/08 02:35:26;;;;;;;14.25;6.13;;;;;;;-0.65;66.47;102189.75;5071259;28;20361;-75
2022/03/08 02:37:54;;;;;;;11.43;5.15;;;;;;;-0.65;65.92;102189.75;5070783;28;20020;-73
2022/03/08 02:40:26;;;;;;;10.82;4.78;;;;;;;-0.65;65.87;102195.00;5071036;28;20045;-74
2022/03/08 02:42:51;;;;;;;10.98;5.55;;;;;;;-0.71;66.43;102187.47;5071050;28;20024;-75
2022/03/08 02:45:17;;;;;;;10.43;4.53;;;;;;;-0.78;66.76;102178.31;5071168;28;20032;-74
2022/03/08 02:47:44;;;;;;;13.52;6.15;;;;;;;-0.81;67.50;102204.66;5071173;28;20035;-75
2022/03/08 02:50:12;;;;;;;13.15;5.43;;;;;;;-0.90;66.61;102192.94;5070896;28;20037;-75
2022/03/08 02:52:39;;;;;;;11.95;5.10;;;;;;;-0.92;67.13;102184.31;5070694;28;20535;-75
2022/03/08 02:55:06;;;;;;;10.68;5.05;;;;;;;-0.96;67.40;102191.53;5069468;28;20040;-75
2022/03/08 02:57:31;;;;;;;11.85;4.65;;;;;;;-1.01;67.37;102185.72;5071651;28;20067;-75
2022/03/08 02:59:57;;;;;;;17.60;5.22;;;;;;;-1.05;68.37;102180.75;5071007;28;20055;-75
2022/03/08 03:02:22;;;;;;;12.38;4.78;;;;;;;-1.13;67.92;102168.09;5070323;28;20028;-75
2022/03/08 03:04:48;;;;;;;13.20;5.45;;;;;;;-1.11;68.02;102169.69;5070325;28;20032;-75
2022/03/08 03:07:16;;;;;;;11.95;5.38;;;;;;;-1.14;67.94;102162.00;5070685;28;20063;-75
2022/03/08 03:09:42;;;;;;;12.40;5.35;;;;;;;-1.20;68.58;102151.06;5070655;28;20032;-75
2022/03/08 03:12:08;;;;;;;13.25;5.80;;;;;;;-1.23;68.12;102144.22;5070606;28;20082;-75
2022/03/08 03:14:34;;;;;;;10.77;5.68;;;;;;;-1.20;68.88;102154.53;5070303;28;20032;-75
2022/03/08 03:16:59;;;;;;;10.32;5.93;;;;;;;-1.28;68.51;102135.81;5051981;28;20024;-75
2022/03/08 03:19:24;;;;;;;13.48;5.45;;;;;;;-1.26;68.62;102151.41;5069094;28;20025;-75
2022/03/08 03:21:50;;;;;;;12.38;5.50;;;;;;;-1.24;68.30;102149.53;5069287;28;20024;-75
2022/03/08 03:24:16;;;;;;;13.38;6.00;;;;;;;-1.17;68.16;102143.88;5070397;28;20464;-75
2022/03/08 03:26:42;;;;;;;10.48;4.70;;;;;;;-1.13;68.26;102132.31;5070403;28;20036;-75
2022/03/08 03:29:07;;;;;;;11.27;6.55;;;;;;;-1.10;68.47;102133.91;5070178;28;20040;-75
2022/03/08 03:31:33;;;;;;;12.73;4.80;;;;;;;-1.13;67.83;102126.19;5070267;28;20037;-75
2022/03/08 03:33:58;;;;;;;16.23;6.68;;;;;;;-1.16;68.18;102129.84;5070033;28;20367;-75
2022/03/08 03:36:24;;;;;;;11.30;5.80;;;;;;;-1.18;68.82;102126.50;5069839;28;20063;-75
2022/03/08 03:38:49;;;;;;;9.88;4.45;;;;;;;-1.19;68.03;102131.81;5069460;28;20143;-75
2022/03/08 03:41:14;;;;;;;14.77;6.55;;;;;;;-1.10;68.13;102141.75;5070059;28;20103;-75
2022/03/08 03:43:40;;;;;;;12.32;5.53;;;;;;;-1.09;67.87;102130.34;5070150;28;20510;-75
2022/03/08 03:46:06;;;;;;;12.63;5.35;;;;;;;-1.05;67.87;102139.69;5069683;28;20021;-75
2022/03/08 03:48:32;;;;;;;12.68;5.22;;;;;;;-1.05;67.33;102134.44;5070014;28;20036;-75
2022/03/08 03:50:57;;;;;;;10.93;4.90;;;;;;;-1.00;67.99;102137.63;5069810;28;20032;-75
2022/03/08 03:53:23;;;;;;;10.15;5.43;;;;;;;-0.96;67.28;102143.56;5069656;28;20043;-75
2022/03/08 03:55:48;;;;;;;9.75;4.63;;;;;;;-0.95;67.25;102151.31;5069611;28;20032;-75
2022/03/08 03:58:14;;;;;;;13.05;6.82;;;;;;;-0.94;67.75;102142.53;5069854;28;20116;-75
2022/03/08 04:00:39;;;;;;;18.33;5.97;;;;;;;-0.90;67.73;102149.25;5068572;28;20099;-75
2022/03/08 04:03:04;;;;;;;10.82;5.40;;;;;;;-0.93;67.31;102138.97;5069472;28;20039;-75
2022/03/08 04:05:30;;;;;;;11.50;5.88;;;;;;;-0.91;67.29;102152.00;5069478;28;20545;-75
2022/03/08 04:07:55;;;;;;;12.02;6.13;;;;;;;-0.90;67.51;102148.44;5069742;28;20115;-75
2022/03/08 04:10:20;;;;;;;11.45;4.82;;;;;;;-0.94;67.36;102142.53;5069690;28;20024;-75
2022/03/08 04:12:46;;;;;;;12.15;6.25;;;;;;;-0.97;67.88;102142.72;5069693;28;20028;-75
2022/03/08 04:15:11;;;;;;;12.77;5.72;;;;;;;-0.99;67.30;102138.50;5069544;28;20070;-75
2022/03/08 04:17:37;;;;;;;12.98;6.22;;;;;;;-1.00;67.36;102137.63;5069394;28;20028;-75
2022/03/08 04:20:05;;;;;;;10.55;5.38;;;;;;;-1.08;67.21;102118.91;5068239;28;20020;-75
2022/03/08 04:22:30;;;;;;;12.88;5.65;;;;;;;-1.05;67.25;102118.75;5069319;28;20048;-75
2022/03/08 04:24:55;;;;;;;12.05;5.28;;;;;;;-0.98;67.73;102130.53;5069603;28;20114;-75
2022/03/08 04:27:21;;;;;;;9.25;4.28;;;;;;;-0.95;67.48;102126.91;5069371;28;20024;-75
2022/03/08 04:29:46;;;;;;;10.98;5.65;;;;;;;-0.99;67.50;102131.50;5069759;28;20056;-75
2022/03/08 04:32:12;;;;;;;11.30;5.60;;;;;;;-1.02;67.92;102117.72;5069896;28;20041;-75
2022/03/08 04:34:37;;;;;;;10.40;5.10;;;;;;;-0.99;67.64;102131.50;5069233;28;20081;-74
2022/03/08 04:37:03;;;;;;;12.43;5.40;;;;;;;-0.98;67.55;102127.09;5069406;28;20036;-75
2022/03/08 04:39:28;;;;;;;12.70;4.82;;;;;;;-0.93;67.66;102125.88;5069255;28;20056;-75
2022/03/08 04:41:54;;;;;;;14.10;5.93;;;;;;;-0.89;67.57;102129.19;5069433;28;20036;-75
2022/03/08 04:44:19;;;;;;;14.40;5.38;;;;;;;-0.90;67.23;102133.56;5069503;28;20075;-75
2022/03/08 04:46:44;;;;;;;10.63;5.25;;;;;;;-0.94;67.83;102123.38;5069291;28;20023;-75
2022/03/08 04:49:10;;;;;;;12.57;5.63;;;;;;;-0.96;67.43;102125.22;5069398;28;20039;-75
2022/03/08 04:51:35;;;;;;;11.43;5.75;;;;;;;-0.93;67.67;102120.66;5073442;28;20379;-75
2022/03/08 04:54:01;;;;;;;12.52;5.30;;;;;;;-0.97;67.18;102123.53;5073027;28;20036;-75
2022/03/08 04:56:26;;;;;;;13.60;6.38;;;;;;;-0.98;67.79;102127.09;5073146;28;20032;-75
2022/03/08 04:58:53;;;;;;;15.75;6.18;;;;;;;-1.00;67.94;102126.34;5073017;28;20052;-75
2022/03/08 05:01:19;;;;;;;10.85;5.70;;;;;;;-1.02;67.72;102121.19;5072442;28;20498;-75
2022/03/08 05:03:44;;;;;;;13.93;5.70;;;;;;;-1.06;68.00;102113.63;5072886;28;20028;-75
2022/03/08 05:06:09;;;;;;;12.15;5.72;;;;;;;-1.08;68.28;102121.53;5072557;28;20467;-75
2022/03/08 05:08:35;;;;;;;19.50;6.20;;;;;;;-1.04;67.75;102120.44;5072782;28;20029;-75
2022/03/08 05:11:02;;;;;;;10.38;5.25;;;;;;;-1.01;67.81;102119.41;5054929;28;20040;-75
2022/03/08 05:13:31;;;;;;;11.85;5.68;;;;;;;-1.05;67.97;102110.03;5072631;28;20034;-75
2022/03/08 05:15:57;;;;;;;13.90;6.25;;;;;;;-1.05;67.45;102123.13;5072833;28;20028;-75
2022/03/08 05:18:23;;;;;;;12.65;6.63;;;;;;;-1.06;67.90;102116.22;5072746;28;20085;-75
2022/03/08 05:20:48;;;;;;;13.27;5.13;;;;;;;-1.05;67.72;102121.34;5072758;28;20426;-75
2022/03/08 05:23:14;;;;;;;12.13;6.20;;;;;;;-1.07;67.84;102120.63;5072545;28;20052;-75
2022/03/08 05:25:41;;;;;;;17.88;6.28;;;;;;;-1.12;67.93;102112.19;5072227;28;20040;-75
2022/03/08 05:28:06;;;;;;;13.13;6.22;;;;;;;-1.14;68.75;102112.28;5072589;28;20035;-75
2022/03/08 05:30:32;;;;;;;12.48;5.80;;;;;;;-1.10;68.28;102115.56;5072518;28;20029;-75
2022/03/08 05:32:57;;;;;;;12.50;5.38;;;;;;;-1.14;68.39;102109.66;5072479;28;20107;-75
2022/03/08 05:35:23;;;;;;;10.73;5.35;;;;;;;-1.15;68.63;102115.84;5072544;28;20062;-75
2022/03/08 05:37:48;;;;;;;18.95;6.00;;;;;;;-1.16;68.42;102113.28;5072271;28;20605;-75
2022/03/08 05:40:14;;;;;;;13.75;6.22;;;;;;;-1.18;68.54;102116.03;5070991;28;20651;-75
2022/03/08 05:42:39;;;;;;;12.60;5.50;;;;;;;-1.19;68.82;102109.09;5072485;28;20464;-75
2022/03/08 05:45:09;;;;;;;12.82;5.75;;;;;;;-1.20;69.31;102111.81;5072383;28;20039;-75
2022/03/08 05:47:35;;;;;;;29.92;6.38;;;;;;;-1.22;69.50;102108.44;5072067;28;20468;-75
2022/03/08 05:50:01;;;;;;;14.50;7.07;;;;;;;-1.24;69.23;102105.06;5072402;28;20042;-75
2022/03/08 05:52:27;;;;;;;14.27;5.75;;;;;;;-1.27;69.64;102107.84;5072369;28;20032;-76
2022/03/08 05:54:52;;;;;;;14.00;6.32;;;;;;;-1.30;69.44;102108.03;5071617;28;20036;-75
2022/03/08 05:57:17;;;;;;;11.90;5.72;;;;;;;-1.32;70.00;102103.72;5071998;28;20496;-75
2022/03/08 05:59:44;;;;;;;11.48;5.50;;;;;;;-1.32;69.67;102105.50;5071929;28;20062;-75
2022/03/08 06:02:10;;;;;;;14.57;7.50;;;;;;;-1.33;69.76;102104.66;5071526;28;20418;-75
2022/03/08 06:04:36;;;;;;;11.07;5.53;;;;;;;-1.34;69.71;102116.06;5070705;28;20028;-75
2022/03/08 06:07:01;;;;;;;13.52;7.55;;;;;;;-1.38;69.75;102117.16;5071827;28;20028;-75
2022/03/08 06:09:26;;;;;;;13.82;6.68;;;;;;;-1.33;69.67;102122.13;5070537;28;20090;-75
2022/03/08 06:11:52;;;;;;;14.85;6.38;;;;;;;-1.36;69.76;102122.31;5071714;28;20376;-75
2022/03/08 06:14:17;;;;;;;13.20;6.22;;;;;;;-1.35;70.35;102129.22;5070518;28;20036;-75
2022/03/08 06:16:42;;;;;;;15.13;6.32;;;;;;;-1.37;69.88;102121.44;5071508;28;20032;-75
2022/03/08 06:19:08;;;;;;;14.93;5.82;;;;;;;-1.36;70.32;102119.69;5070300;28;20040;-75
2022/03/08 06:21:33;;;;;;;12.10;5.65;;;;;;;-1.32;70.19;102122.03;5070346;28;20051;-75
2022/03/08 06:23:59;;;;;;;15.57;6.45;;;;;;;-1.30;69.69;102126.34;5071540;28;20029;-76
2022/03/08 06:26:24;;;;;;;12.73;6.72;;;;;;;-1.28;69.81;102129.69;5071482;28;20044;-75
2022/03/08 06:28:49;;;;;;;12.90;5.65;;;;;;;-1.25;69.67;102122.53;5071407;28;20042;-75
2022/03/08 06:31:15;;;;;;;12.43;5.95;;;;;;;-1.21;69.74;102124.03;5069878;28;20098;-75
2022/03/08 06:33:40;;;;;;;15.15;6.72;;;;;;;-1.19;69.21;102121.34;5071293;28;20108;-75
2022/03/08 06:36:05;;;;;;;15.95;6.93;;;;;;;-1.17;69.60;102116.84;5071713;28;20021;-75
2022/03/08 06:38:31;;;;;;;15.32;7.65;;;;;;;-1.07;69.36;102122.38;5071591;28;20170;-75
2022/03/08 06:40:56;;;;;;;13.70;6.57;;;;;;;-1.15;69.03;102101.91;5071509;28;20028;-75
2022/03/08 06:43:22;;;;;;;16.50;7.05;;;;;;;-0.97;69.41;102123.53;5071205;28;20035;-75
2022/03/08 06:45:47;;;;;;;12.40;5.65;;;;;;;-0.86;68.62;102123.75;5071054;28;20039;-75
2022/03/08 06:48:12;;;;;;;12.52;6.43;;;;;;;-0.76;68.13;102121.41;5071189;28;20024;-75
2022/03/08 06:50:38;;;;;;;12.80;5.65;;;;;;;-0.59;68.65;102115.19;5071029;28;20074;-75
2022/03/08 06:53:04;;;;;;;18.35;7.35;;;;;;;-0.33;67.38;102113.59;5070918;28;20017;-75
2022/03/08 06:55:29;;;;;;;14.23;7.00;;;;;;;-0.12;66.87;102104.38;5071179;28;20047;-75
2022/03/08 06:57:54;;;;;;;15.27;6.25;;;;;;;0.15;65.43;102095.69;5069277;28;20150;-75
2022/03/08 07:00:20;;;;;;;16.13;6.05;;;;;;;0.39;65.33;102109.88;5070799;28;20040;-75
2022/03/08 07:02:46;;;;;;;15.07;6.25;;;;;;;0.51;64.96;102110.84;5070332;28;20054;-75
2022/03/08 07:05:11;;;;;;;10.60;5.28;;;;;;;0.57;64.45;102109.59;5070641;28;20117;-75
2022/03/08 07:07:38;;;;;;;15.20;5.55;;;;;;;0.68;63.99;102115.00;5070057;28;20024;-75
2022/03/08 07:10:04;;;;;;;13.57;6.18;;;;;;;0.73;63.59;102118.16;5070914;28;20506;-75
2022/03/08 07:12:30;;;;;;;15.10;7.13;;;;;;;0.65;64.03;102105.56;5069567;28;20059;-75
2022/03/08 07:14:55;;;;;;;12.35;6.80;;;;;;;0.84;63.25;102113.06;5070542;28;20028;-76
2022/03/08 07:17:21;;;;;;;12.88;7.18;;;;;;;0.92;62.91;102117.78;5070436;28;20479;-75
2022/03/08 07:19:47;;;;;;;12.73;5.57;;;;;;;0.92;63.08;102112.53;5068994;28;20036;-75
2022/03/08 07:22:15;;;;;;;12.55;6.13;;;;;;;1.03;63.20;102115.28;5070453;28;20365;-75
2022/03/08 07:24:41;;;;;;;14.85;6.88;;;;;;;1.03;62.09;102115.28;5070101;28;20041;-75
2022/03/08 07:27:08;;;;;;;12.70;5.70;;;;;;;1.07;62.00;102123.78;5069739;28;20032;-75
2022/03/08 07:29:33;;;;;;;14.07;7.78;;;;;;;1.06;62.57;102114.25;5068760;28;20055;-75
2022/03/08 07:31:59;;;;;;;10.50;5.85;;;;;;;1.05;62.39;102123.06;5070221;28;20476;-75
2022/03/08 07:34:24;;;;;;;15.10;6.00;;;;;;;1.04;62.18;102109.06;5069919;28;20067;-76
2022/03/08 07:36:49;;;;;;;13.43;6.38;;;;;;;1.07;62.53;102113.28;5069866;28;20028;-75
2022/03/08 07:39:15;;;;;;;12.18;6.07;;;;;;;1.08;62.43;102110.56;5051743;28;20069;-75
2022/03/08 07:41:40;;;;;;;12.65;5.47;;;;;;;1.20;62.15;102118.56;5070068;28;20029;-75
2022/03/08 07:44:06;;;;;;;14.10;6.03;;;;;;;1.25;62.82;102130.44;5069889;28;20031;-76
2022/03/08 07:46:31;;;;;;;10.48;5.30;;;;;;;1.39;62.46;102118.13;5068393;28;20023;-75
2022/03/08 07:48:56;;;;;;;13.65;6.57;;;;;;;1.53;61.43;102118.03;5068789;28;20025;-75
2022/03/08 07:51:22;;;;;;;12.25;6.05;;;;;;;1.72;60.22;102113.16;5069782;28;20032;-75
2022/03/08 07:53:47;;;;;;;12.60;6.20;;;;;;;2.04;59.70;102115.28;5069960;28;20025;-75
2022/03/08 07:56:12;;;;;;;12.98;6.25;;;;;;;2.46;58.92;102114.94;5069498;28;20079;-75
2022/03/08 07:58:40;;;;;;;14.07;6.57;;;;;;;3.07;57.06;102105.94;5069748;28;20064;-75
2022/03/08 08:01:05;;;;;;;10.43;5.65;;;;;;;3.89;55.84;102100.44;5069527;28;20028;-75
2022/03/08 08:03:31;;;;;;;13.82;6.75;;;;;;;4.41;54.26;102098.06;5069301;28;20070;-76
2022/03/08 08:05:56;;;;;;;11.75;5.57;;;;;;;4.61;52.88;102104.31;5069739;28;20040;-76
2022/03/08 08:08:22;;;;;;;11.85;5.95;;;;;;;4.91;50.75;102100.94;5068900;28;20074;-76
2022/03/08 08:10:47;;;;;;;10.30;5.82;;;;;;;5.10;51.43;102102.03;5068625;28;20036;-75
2022/03/08 08:13:13;;;;;;;12.43;5.20;;;;;;;5.20;51.02;102110.88;5069496;28;20494;-75
2022/03/08 08:15:39;;;;;;;16.25;6.22;;;;;;;5.13;50.54;102115.81;5069530;28;20047;-75
2022/03/08 08:18:05;;;;;;;16.92;8.00;;;;;;;5.11;49.76;102117.78;5069434;28;20036;-75
2022/03/08 08:20:30;;;;;;;13.77;6.82;;;;;;;5.21;51.50;102116.03;5069443;28;20044;-75
2022/03/08 08:22:56;;;;;;;13.35;6.53;;;;;;;5.26;50.02;102103.25;5067761;28;20028;-74
2022/03/08 08:25:21;;;;;;;14.02;6.78;;;;;;;5.20;50.81;102095.84;5063905;28;20089;-74
2022/03/08 08:27:47;;;;;;;12.90;6.72;;;;;;;5.34;49.54;102109.69;5064215;28;20111;-74
2022/03/08 08:30:13;;;;;;;9.93;5.15;;;;;;;5.10;51.08;102108.16;5063366;28;20032;-74
2022/03/08 08:32:39;;;;;;;10.38;5.28;;;;;;;4.70;51.16;102114.16;5063664;28;20484;-74
2022/03/08 08:35:04;;;;;;;10.73;5.80;;;;;;;4.45;52.58;102111.84;5063539;28;20383;-74
2022/03/08 08:37:30;;;;;;;16.23;7.15;;;;;;;4.28;53.59;102115.88;5064750;28;20040;-74
2022/03/08 08:39:55;;;;;;;11.70;6.13;;;;;;;4.18;53.26;102116.59;5066329;28;20483;-74
2022/03/08 08:42:21;;;;;;;11.82;5.72;;;;;;;4.12;52.51;102116.25;5069334;28;20364;-74
2022/03/08 08:44:46;;;;;;;13.20;6.32;;;;;;;4.08;54.07;102115.66;5067815;28;20041;-80
2022/03/08 08:47:12;;;;;;;12.60;5.90;;;;;;;4.14;54.29;102123.09;5069124;28;20029;-74
2022/03/08 08:49:37;;;;;;;13.85;7.15;;;;;;;4.17;53.10;102128.13;5069131;28;20383;-74
2022/03/08 08:52:03;;;;;;;10.93;5.07;;;;;;;4.17;52.28;102114.09;5069370;28;20040;-74
2022/03/08 08:54:29;;;;;;;11.80;5.70;;;;;;;4.20;52.08;102110.38;5069194;28;20654;-74
2022/03/08 08:56:54;;;;;;;10.73;5.65;;;;;;;4.24;52.59;102106.50;5067661;28;20429;-74
2022/03/08 08:59:20;;;;;;;13.98;5.47;;;;;;;4.35;51.51;102119.69;5068454;28;20031;-74
2022/03/08 09:01:45;;;;;;;11.23;5.82;;;;;;;4.41;52.68;102124.47;5069067;28;20048;-74
2022/03/08 09:04:11;;;;;;;9.98;5.82;;;;;;;4.44;51.53;102103.06;5067593;28;20036;-74
2022/03/08 09:06:36;;;;;;;9.10;5.38;;;;;;;4.57;53.53;102103.75;5069117;28;20111;-74
2022/03/08 09:09:02;;;;;;;10.82;6.05;;;;;;;4.62;51.36;102090.16;5067576;28;20488;-74
2022/03/08 09:11:28;;;;;;;11.77;5.97;;;;;;;4.75;52.47;102101.38;5068400;28;20109;-74
2022/03/08 09:13:53;;;;;;;19.05;7.13;;;;;;;4.86;50.79;102097.03;5068504;28;20039;-74
2022/03/08 09:16:18;;;;;;;11.73;5.97;;;;;;;4.93;49.91;102087.63;5067624;28;20068;-74
2022/03/08 09:18:44;;;;;;;11.05;5.18;;;;;;;4.99;50.93;102095.03;5068952;28;20024;-74
2022/03/08 09:21:11;;;;;;;11.55;5.00;;;;;;;5.06;49.89;102093.53;5068989;28;20028;-74
2022/03/08 09:23:38;;;;;;;10.50;5.40;;;;;;;5.13;48.64;102078.81;5068899;28;20031;-74
2022/03/08 09:26:05;;;;;;;9.38;5.40;;;;;;;5.10;49.05;102081.72;5068638;28;20115;-74
2022/03/08 09:28:30;;;;;;;8.95;5.10;;;;;;;5.12;48.38;102076.31;5068128;28;20082;-74
2022/03/08 09:30:56;;;;;;;13.98;6.45;;;;;;;5.21;49.41;102081.66;5067204;28;20040;-74
2022/03/08 09:33:21;;;;;;;11.77;5.03;;;;;;;5.31;49.79;102072.91;5068543;28;20033;-74
2022/03/08 09:35:47;;;;;;;10.70;5.93;;;;;;;5.43;47.52;102071.88;5069032;28;20487;-74
2022/03/08 09:38:13;;;;;;;11.45;5.05;;;;;;;5.45;47.93;102077.88;5072084;28;20070;-74
2022/03/08 09:40:39;;;;;;;10.88;5.18;;;;;;;5.50;47.20;102062.41;5072141;28;21005;-74
2022/03/08 09:43:05;;;;;;;11.57;5.10;;;;;;;5.51;47.71;102064.09;5072317;28;20035;-74
2022/03/08 09:45:32;;;;;;;10.13;4.82;;;;;;;5.54;47.60;102066.47;5072287;28;20021;-74
2022/03/08 09:47:57;;;;;;;11.38;5.63;;;;;;;5.60;48.43;102062.47;5072064;28;20495;-74
2022/03/08 09:50:22;;;;;;;9.25;4.65;;;;;;;5.70;46.27;102055.38;5072473;28;20032;-74
2022/03/08 09:52:48;;;;;;;10.68;5.35;;;;;;;5.65;47.75;102041.72;5072041;28;20041;-74
2022/03/08 09:55:16;;;;;;;15.75;5.95;;;;;;;5.83;47.13;102057.78;5070755;28;20036;-74
2022/03/08 09:57:42;;;;;;;10.68;5.53;;;;;;;5.90;47.21;102054.47;5071905;28;20033;-74
2022/03/08 10:00:09;;;;;;;10.55;5.63;;;;;;;5.97;47.43;102049.47;5071959;28;20035;-74
2022/03/08 10:02:52;;;;;;;9.63;5.15;;;;;;;6.04;46.85;102055.06;5071852;28;21026;-74
2022/03/08 10:05:22;;;;;;;11.15;5.35;;;;;;;6.06;46.47;102039.91;5071798;28;20107;-74
2022/03/08 10:08:14;;;;;;;9.50;5.35;;;;;;;6.16;48.03;102051.34;5071928;28;20475;-74
2022/03/08 10:10:53;;;;;;;11.95;5.50;;;;;;;6.23;46.82;102051.59;5072129;28;20020;-74
2022/03/08 10:13:21;;;;;;;9.80;5.00;;;;;;;6.32;45.38;102038.38;5071712;28;20043;-74
2022/03/08 10:16:03;;;;;;;7.97;5.13;;;;;;;6.36;46.43;102028.31;5070511;28;20024;-74
2022/03/08 10:18:37;;;;;;;11.68;5.80;;;;;;;6.38;44.68;102033.50;5071708;28;20036;-74
2022/03/08 10:21:03;;;;;;;20.00;7.38;;;;;;;6.45;45.49;102024.00;5071704;28;20027;-74
2022/03/08 10:23:39;;;;;;;9.52;4.80;;;;;;;6.52;45.25;102025.09;5071622;28;20028;-74
2022/03/08 10:26:05;;;;;;;10.73;6.03;;;;;;;6.52;45.31;102019.81;5071541;28;20048;-74
2022/03/08 10:28:30;;;;;;;13.45;5.80;;;;;;;6.62;46.00;102028.59;5071587;28;20533;-74
2022/03/08 10:30:55;;;;;;;8.20;4.60;;;;;;;6.71;46.08;102027.75;5070161;28;20055;-74
2022/03/08 10:33:33;;;;;;;11.77;5.70;;;;;;;6.82;45.95;102028.56;5071398;28;20028;-74
2022/03/08 10:35:59;;;;;;;11.05;4.78;;;;;;;6.87;44.63;102021.03;5071335;28;20391;-74
2022/03/08 10:38:24;;;;;;;10.77;6.35;;;;;;;6.98;44.07;102028.81;5071193;28;20028;-74
2022/03/08 10:40:51;;;;;;;15.45;6.53;;;;;;;7.02;45.07;102016.91;5071245;28;20094;-74
2022/03/08 10:43:18;;;;;;;9.32;5.75;;;;;;;7.19;44.14;102020.63;5071190;28;20040;-74
2022/03/08 10:45:49;;;;;;;10.45;4.82;;;;;;;7.22;44.58;102012.38;5071218;28;20039;-74
2022/03/08 10:48:18;;;;;;;;;;;;;;;7.27;46.66;102011.94;5071349;28;20029;-74
2022/03/08 10:50:45;;;;;;;10.40;4.57;;;;;;;7.28;42.82;102009.13;5071077;28;20359;-74
2022/03/08 10:53:12;;;;;;;8.35;5.10;;;;;;;7.29;42.55;102007.34;5070821;28;20036;-74
2022/03/08 10:55:46;;;;;;;14.30;5.63;;;;;;;7.24;42.19;101997.97;5070975;28;20085;-75
2022/03/08 10:58:14;;;;;;;11.93;4.93;;;;;;;7.34;42.89;102002.44;5070627;28;20040;-74
2022/03/08 11:00:51;;;;;;;13.20;5.65;;;;;;;7.37;42.40;102000.31;5070879;28;20028;-74
2022/03/08 11:03:22;;;;;;;9.52;5.60;;;;;;;7.39;41.84;101993.03;5070687;28;20024;-74
2022/03/08 11:05:50;;;;;;;12.15;6.75;;;;;;;7.48;43.48;101996.63;5070956;28;20074;-74
2022/03/08 11:08:16;;;;;;;12.23;5.28;;;;;;;7.56;39.94;101990.56;5070654;28;20085;-74
2022/03/08 11:10:43;;;;;;;10.35;4.32;;;;;;;7.50;39.11;101985.88;5070645;28;20063;-74
2022/03/08 11:13:11;;;;;;;10.50;5.15;;;;;;;7.46;38.89;101982.66;5070496;28;20107;-74
2022/03/08 11:15:38;;;;;;;8.57;3.53;;;;;;;7.52;38.48;101983.88;5070271;28;20534;-74
2022/03/08 11:18:06;;;;;;;11.27;4.40;;;;;;;7.54;38.77;101985.38;5070326;28;20264;-74